WetterOnline ( http://www.wetteronline.de )

Wetter aktuell Paderborn

Aktuelles Wetter: Bad Lippspringe (158m)

6-stündlich | Neueste Meldungen
Ortszeit Temperatur Wetter
So, 25.02. 1:00 -4.3° C wolkenlos
Sa, 24.02. 19:00 -1.5° C wolkenlos
Sa, 24.02. 13:00 -0.4° C bewölkt
Sa, 24.02. 7:00 -5.0° C wolkenlos
Sa, 24.02. 1:00 -3.7° C wolkenlos
Fr, 23.02. 19:00 -1.0° C wolkenlos
Fr, 23.02. 13:00 0.2° C wolkenlos
Fr, 23.02. 7:00 -2.7° C fast wolkenlos
Ortszeit Temperatur Wetter
So, 25.02. 4:30 -5.9° C fast wolkenlos
So, 25.02. 4:20 -5.9° C fast wolkenlos
So, 25.02. 4:10 -5.8° C fast wolkenlos
So, 25.02. 4:00 -5.7° C fast wolkenlos
So, 25.02. 3:50 -5.7° C fast wolkenlos
So, 25.02. 3:40 -5.5° C fast wolkenlos
So, 25.02. 3:30 -5.1° C fast wolkenlos
So, 25.02. 3:00 -5.3° C fast wolkenlos
So, 25.02. 2:30 -5.0° C leicht bewölkt
So, 25.02. 2:00 -4.7° C wolkenlos
So, 25.02. 1:30 -4.4° C wolkenlos
Ortszeit Relative Feuchte Sichtweite
So, 25.02. 1:00 56% 40 km
Sa, 24.02. 19:00 53% 55 km
Sa, 24.02. 13:00 69% 25 km
Sa, 24.02. 7:00 63% 11 km
Sa, 24.02. 1:00 59% 11 km
Fr, 23.02. 19:00 49% 21 km
Fr, 23.02. 13:00 55% 14 km
Fr, 23.02. 7:00 75% 13 km
Ortszeit Relative Feuchte Sichtweite
So, 25.02. 4:30 63% 35 km
So, 25.02. 4:20 63% -
So, 25.02. 4:10 62% -
So, 25.02. 4:00 62% 35 km
So, 25.02. 3:50 62% -
So, 25.02. 3:40 61% -
So, 25.02. 3:30 58% 35 km
So, 25.02. 3:00 59% 40 km
So, 25.02. 2:30 57% 35 km
So, 25.02. 2:00 56% 40 km
So, 25.02. 1:30 55% 40 km
Ortszeit Niederschlagsmenge Niederschlagsart
So, 25.02. 1:00 0.0 l/m2 in 6 Std. -
Sa, 24.02. 19:00 0.0 l/m2 in 12 Std. -
Sa, 24.02. 13:00 0.0 l/m2 in 6 Std. -
Sa, 24.02. 7:00 0.0 l/m2 in 12 Std. -
Sa, 24.02. 1:00 0.0 l/m2 in 6 Std. -
Fr, 23.02. 19:00 0.0 l/m2 in 12 Std. -
Fr, 23.02. 13:00 0.0 l/m2 in 6 Std. -
Fr, 23.02. 7:00 0.0 l/m2 in 12 Std. -
Ortszeit Niederschlagsmenge Niederschlagsart
So, 25.02. 4:30 0.0 l/m2 in 1 Std. -
So, 25.02. 4:20 keine Meldung -
So, 25.02. 4:10 keine Meldung -
So, 25.02. 4:00 0.0 l/m2 in 1 Std. -
So, 25.02. 3:50 keine Meldung -
So, 25.02. 3:40 keine Meldung -
So, 25.02. 3:30 0.0 l/m2 in 1 Std. -
So, 25.02. 3:00 0.0 l/m2 in 1 Std. -
So, 25.02. 2:30 0.0 l/m2 in 1 Std. -
So, 25.02. 2:00 0.0 l/m2 in 1 Std. -
So, 25.02. 1:30 0.0 l/m2 in 1 Std. -
Ortszeit Stärke Spitze Richtung
km/h Bft. km/h Grad Sektor
So, 25.02. 1:00 14 3 40 90° O
Sa, 24.02. 19:00 15 3 50 60° NO
Sa, 24.02. 13:00 22 4 47 50° NO
Sa, 24.02. 7:00 11 2 25 70° O
Sa, 24.02. 1:00 13 3 37 50° NO
Fr, 23.02. 19:00 24 4 44 60° NO
Fr, 23.02. 13:00 28 4 48 60° NO
Fr, 23.02. 7:00 7 2 25 30° NO
Ortszeit Stärke Spitze Richtung
km/h Bft. km/h Grad Sektor
So, 25.02. 4:30 13 3 30 70° O
So, 25.02. 4:20 13 3 - 70° O
So, 25.02. 4:10 14 3 - 70° O
So, 25.02. 4:00 15 3 31 70° O
So, 25.02. 3:50 15 3 - 70° O
So, 25.02. 3:40 14 3 - 60° NO
So, 25.02. 3:30 14 3 32 60° NO
So, 25.02. 3:00 14 3 36 60° NO
So, 25.02. 2:30 17 3 35 80° O
So, 25.02. 2:00 17 3 33 80° O
So, 25.02. 1:30 19 3 33 90° O
Ortszeit Untergrenze Bedeckung Gattung
total tief tief mittel hoch
So, 25.02. 1:00 - 0/8 0/8 - - -
Sa, 24.02. 19:00 - 0/8 0/8 - - -
Sa, 24.02. 13:00 840 m 7/8 7/8 - - -
Sa, 24.02. 7:00 - 0/8 0/8 - - -
Sa, 24.02. 1:00 - 0/8 0/8 - - -
Fr, 23.02. 19:00 - 0/8 0/8 - - -
Fr, 23.02. 13:00 12000 m 0/8 0/8 - - -
Fr, 23.02. 7:00 12000 m 1/8 0/8 - - -
Ortszeit Bedeckungsgrad in Achtel und Wolkenuntergrenze
So, 25.02. 4:30 1(12000m)
So, 25.02. 4:20 1(12000m)
So, 25.02. 4:10 1(12000m)
So, 25.02. 4:00 1(12000m)
So, 25.02. 3:50 1(12000m)
So, 25.02. 3:40 1(12000m)
So, 25.02. 3:30 1(12000m)
So, 25.02. 3:00 1(12000m)
So, 25.02. 2:30 3(12000m)
So, 25.02. 2:00 keine Wolken
So, 25.02. 1:30 keine Wolken
Ortszeit Luftdruck NN (hPa) Tendenz (hPa in 3 Std.)
So, 25.02. 1:00 1031 + 0,9
Sa, 24.02. 19:00 1029 + 0,7
Sa, 24.02. 13:00 1028 + 0,1
Sa, 24.02. 7:00 1027 + 1,0
Sa, 24.02. 1:00 1026 + 0,5
Fr, 23.02. 19:00 1024 + 0,1
Fr, 23.02. 13:00 1025 - 0,2
Fr, 23.02. 7:00 1024 + 0,4
Ortszeit Luftdruck NN (hPa) Tendenz (hPa in 3 Std.)
So, 25.02. 4:30 1031 + 0,3
So, 25.02. 4:20 1031 keine Meldung
So, 25.02. 4:10 1031 keine Meldung
So, 25.02. 4:00 1031 + 0,1
So, 25.02. 3:50 1031 keine Meldung
So, 25.02. 3:40 1031 keine Meldung
So, 25.02. 3:30 1031 + 0,3
So, 25.02. 3:00 1031 + 0,3
So, 25.02. 2:30 1031 + 0,1
So, 25.02. 2:00 1031 + 0,3
So, 25.02. 1:30 1031 + 0,4
Ortszeit Schneehöhe (cm)
So, 25.02. 1:00 0
Sa, 24.02. 19:00 0
Sa, 24.02. 13:00 0
Sa, 24.02. 7:00 0
Sa, 24.02. 1:00 0
Fr, 23.02. 19:00 0
Fr, 23.02. 13:00 0
Fr, 23.02. 7:00 0
Ortszeit Schneehöhe (cm)
So, 25.02. 4:30 0
So, 25.02. 4:20 0
So, 25.02. 4:10 0
So, 25.02. 4:00 0
So, 25.02. 3:50 0
So, 25.02. 3:40 0
So, 25.02. 3:30 0
So, 25.02. 3:00 0
So, 25.02. 2:30 0
So, 25.02. 2:00 0
So, 25.02. 1:30 0
Link zu dieser Seite / Seite empfehlen

Das Wetter in ...